Time;durP1;ratioP1;P1;durP2;ratioP2;P2;SDS_P1;SDS_P2;PMS_P1;PMS_P2;Temp;Humidity;BMP_temperature;BMP_pressure;BME280_temperature;BME280_humidity;BME280_pressure;Samples;Min_cycle;Max_cycle;Signal;HPM_P1;HPM_P2
2022/04/26 03:36:48;;;;;;;28.67;22.30;;;;;;;;;;5054184;28;20611;-83
2022/04/26 03:39:53;;;;;;;29.50;21.43;;;;;;;;;;5052414;28;20220;-83
2022/04/26 03:42:57;;;;;;;29.60;22.43;;;;;;;;;;5054392;28;20623;-84
2022/04/26 03:46:01;;;;;;;31.50;23.73;;;;;;;;;;5057488;28;20528;-85
2022/04/26 03:49:06;;;;;;;32.07;23.87;;;;;;;;;;5056882;28;20654;-83
2022/04/26 03:52:10;;;;;;;31.43;24.50;;;;;;;;;;5056881;28;20204;-86
2022/04/26 03:55:14;;;;;;;33.37;24.53;;;;;;;;;;5045815;28;20184;-83
2022/04/26 03:58:18;;;;;;;31.47;24.30;;;;;;;;;;5048629;28;20517;-83
2022/04/26 04:01:22;;;;;;;33.50;23.23;;;;;;;;;;5045276;28;20215;-83
2022/04/26 04:04:26;;;;;;;30.73;23.67;;;;;;;;;;5046507;28;20184;-83
2022/04/26 04:07:31;;;;;;;36.23;23.10;;;;;;;;;;5045507;28;20196;-86
2022/04/26 04:10:35;;;;;;;30.80;23.43;;;;;;;;;;5055957;28;20216;-86
2022/04/26 04:13:39;;;;;;;31.80;24.27;;;;;;;;;;5045471;28;20212;-86
2022/04/26 04:16:43;;;;;;;31.13;22.60;;;;;;;;;;5045061;28;20184;-83
2022/04/26 04:19:47;;;;;;;30.37;22.83;;;;;;;;;;5057583;28;20184;-85
2022/04/26 04:22:55;;;;;;;32.23;23.60;;;;;;;;;;5033989;28;20176;-83
2022/04/26 04:25:59;;;;;;;31.07;23.57;;;;;;;;;;5058242;28;20176;-86
2022/04/26 04:29:05;;;;;;;32.00;23.00;;;;;;;;;;5058775;28;20188;-83
2022/04/26 04:32:10;;;;;;;34.17;23.67;;;;;;;;;;5067262;28;20204;-86
2022/04/26 04:35:13;;;;;;;31.67;23.10;;;;;;;;;;5067203;28;20181;-83
2022/04/26 04:38:18;;;;;;;32.43;23.50;;;;;;;;;;5044896;28;20176;-83
2022/04/26 04:41:22;;;;;;;32.47;23.77;;;;;;;;;;5044283;28;20219;-85
2022/04/26 04:44:26;;;;;;;32.63;24.87;;;;;;;;;;5058465;28;20180;-85
2022/04/26 04:47:30;;;;;;;34.10;24.80;;;;;;;;;;5043590;28;20526;-86
2022/04/26 04:50:35;;;;;;;35.30;24.83;;;;;;;;;;5044882;28;20207;-83
2022/04/26 04:53:39;;;;;;;34.40;26.93;;;;;;;;;;5034004;28;20204;-85
2022/04/26 04:56:43;;;;;;;36.97;24.43;;;;;;;;;;5043670;28;20176;-85
2022/04/26 04:59:48;;;;;;;32.47;24.30;;;;;;;;;;5058500;28;20192;-85
2022/04/26 05:02:52;;;;;;;37.60;25.17;;;;;;;;;;5055514;28;20196;-86
2022/04/26 05:05:56;;;;;;;32.20;23.33;;;;;;;;;;5023305;28;20304;-85
2022/04/26 05:09:00;;;;;;;34.53;25.63;;;;;;;;;;5015200;28;20199;-85
2022/04/26 05:12:05;;;;;;;35.40;26.27;;;;;;;;;;5066011;28;20219;-86
2022/04/26 05:15:09;;;;;;;36.17;26.30;;;;;;;;;;5067021;28;20195;-85
2022/04/26 05:18:14;;;;;;;36.43;25.93;;;;;;;;;;5069795;28;20639;-84
2022/04/26 05:21:18;;;;;;;40.40;30.97;;;;;;;;;;5036095;28;20216;-85
2022/04/26 05:27:45;;;;;;;34.27;24.63;;;;;;;;;;5055255;28;20184;-87
2022/04/26 05:30:54;;;;;;;32.47;25.60;;;;;;;;;;5034254;28;20224;-83
2022/04/26 05:33:58;;;;;;;35.37;25.93;;;;;;;;;;5028225;28;20208;-86
2022/04/26 05:37:02;;;;;;;35.67;26.10;;;;;;;;;;5034732;28;20176;-84
2022/04/26 05:40:07;;;;;;;33.27;25.70;;;;;;;;;;5035529;28;20226;-85
2022/04/26 05:43:11;;;;;;;33.43;24.33;;;;;;;;;;5043382;28;20199;-83
2022/04/26 05:46:15;;;;;;;33.03;24.83;;;;;;;;;;5057272;28;20216;-84
2022/04/26 05:49:20;;;;;;;35.30;26.30;;;;;;;;;;5043508;28;20574;-85
2022/04/26 05:52:24;;;;;;;34.33;24.50;;;;;;;;;;5046260;28;20211;-84
2022/04/26 05:55:28;;;;;;;32.80;24.80;;;;;;;;;;5067007;28;20646;-84
2022/04/26 05:58:32;;;;;;;29.43;23.27;;;;;;;;;;5045449;28;20278;-84
2022/04/26 06:01:37;;;;;;;29.80;24.20;;;;;;;;;;5045631;28;20223;-85
2022/04/26 06:04:43;;;;;;;33.60;24.53;;;;;;;;;;5046126;28;20214;-84
2022/04/26 06:07:48;;;;;;;29.77;23.63;;;;;;;;;;5043134;28;20547;-87
2022/04/26 06:10:52;;;;;;;30.00;23.53;;;;;;;;;;5022011;28;20231;-87
2022/04/26 06:13:56;;;;;;;29.37;22.77;;;;;;;;;;5010794;28;20212;-87
2022/04/26 06:17:00;;;;;;;28.70;23.57;;;;;;;;;;5039680;28;20198;-85
2022/04/26 06:20:05;;;;;;;27.77;21.90;;;;;;;;;;5058641;28;20230;-84
2022/04/26 06:23:09;;;;;;;27.03;21.83;;;;;;;;;;5044176;28;20191;-85
2022/04/26 06:26:14;;;;;;;26.60;20.77;;;;;;;;;;5053943;28;20185;-85
2022/04/26 06:29:18;;;;;;;26.23;20.57;;;;;;;;;;5030520;28;20203;-85
2022/04/26 06:32:22;;;;;;;29.00;21.73;;;;;;;;;;5042489;28;20214;-85
2022/04/26 06:35:27;;;;;;;26.23;20.17;;;;;;;;;;5042002;28;20187;-85
2022/04/26 06:38:31;;;;;;;24.93;19.87;;;;;;;;;;5031019;28;20223;-85
2022/04/26 06:41:36;;;;;;;21.43;16.83;;;;;;;;;;5057175;28;20227;-84
2022/04/26 06:44:40;;;;;;;19.83;16.10;;;;;;;;;;5042339;28;20175;-86
2022/04/26 06:47:44;;;;;;;16.57;13.87;;;;;;;;;;5053875;28;20215;-83
2022/04/26 06:50:49;;;;;;;18.20;13.20;;;;;;;;;;5043316;28;20227;-86
2022/04/26 06:53:53;;;;;;;14.70;12.20;;;;;;;;;;5045258;28;20211;-84
2022/04/26 06:56:57;;;;;;;13.47;11.40;;;;;;;;;;5041032;28;20195;-86
2022/04/26 07:00:04;;;;;;;13.33;11.20;;;;;;;;;;5033283;28;20247;-84
2022/04/26 07:03:08;;;;;;;12.90;11.00;;;;;;;;;;5022040;28;20207;-86
2022/04/26 07:06:12;;;;;;;14.17;11.93;;;;;;;;;;5051030;28;20195;-84
2022/04/26 07:09:17;;;;;;;13.23;11.13;;;;;;;;;;4996720;28;20188;-87
2022/04/26 07:12:21;;;;;;;11.37;9.67;;;;;;;;;;5013132;28;20208;-85
2022/04/26 07:15:25;;;;;;;11.63;10.30;;;;;;;;;;4988986;28;20197;-84
2022/04/26 07:18:30;;;;;;;13.27;10.63;;;;;;;;;;4984804;28;20196;-86
2022/04/26 07:21:36;;;;;;;13.17;10.43;;;;;;;;;;5017417;28;20232;-86
2022/04/26 07:24:40;;;;;;;11.40;10.20;;;;;;;;;;5005834;28;20184;-86
2022/04/26 07:27:44;;;;;;;11.10;9.33;;;;;;;;;;5006758;28;20196;-84
2022/04/26 07:30:48;;;;;;;9.57;8.50;;;;;;;;;;4987003;28;20229;-84
2022/04/26 07:37:15;;;;;;;9.03;7.70;;;;;;;;;;5015914;28;20190;-86
2022/04/26 07:40:20;;;;;;;8.60;7.70;;;;;;;;;;4986400;28;20222;-85
2022/04/26 07:43:24;;;;;;;10.27;8.27;;;;;;;;;;5006723;28;20178;-86
2022/04/26 07:46:29;;;;;;;9.57;8.57;;;;;;;;;;5017892;28;20194;-84
2022/04/26 07:49:33;;;;;;;8.70;7.80;;;;;;;;;;5017579;28;20637;-85
2022/04/26 07:52:37;;;;;;;8.37;7.47;;;;;;;;;;5017299;28;20186;-84
2022/04/26 07:55:41;;;;;;;7.87;7.03;;;;;;;;;;4999399;28;20198;-85
2022/04/26 07:58:45;;;;;;;7.53;6.53;;;;;;;;;;5005551;28;20197;-84
2022/04/26 08:01:49;;;;;;;8.70;7.30;;;;;;;;;;4994442;28;20577;-86
2022/04/26 08:04:55;;;;;;;7.43;6.67;;;;;;;;;;4995023;28;20641;-87
2022/04/26 08:07:59;;;;;;;7.00;6.30;;;;;;;;;;5016598;28;20194;-86
2022/04/26 08:11:04;;;;;;;8.87;6.13;;;;;;;;;;5005210;28;20212;-84
2022/04/26 08:14:08;;;;;;;7.60;5.87;;;;;;;;;;5006277;28;20569;-85
2022/04/26 08:17:15;;;;;;;6.30;5.70;;;;;;;;;;5024445;28;20656;-86
2022/04/26 08:20:19;;;;;;;6.17;5.57;;;;;;;;;;5015484;28;20228;-84
2022/04/26 08:23:23;;;;;;;6.60;6.00;;;;;;;;;;5004995;28;20509;-86
2022/04/26 08:29:49;;;;;;;5.40;4.90;;;;;;;;;;5014527;28;20190;-84
2022/04/26 08:32:54;;;;;;;5.13;4.53;;;;;;;;;;5004727;28;20194;-84
2022/04/26 08:35:58;;;;;;;5.77;5.13;;;;;;;;;;5005899;28;20182;-84
2022/04/26 08:39:02;;;;;;;5.10;4.53;;;;;;;;;;4995725;28;20620;-84
2022/04/26 08:42:07;;;;;;;5.23;4.73;;;;;;;;;;5005678;28;20530;-84
2022/04/26 08:45:13;;;;;;;5.90;4.93;;;;;;;;;;5006645;28;20624;-84
2022/04/26 08:51:40;;;;;;;5.10;4.40;;;;;;;;;;5009516;28;20704;-85
2022/04/26 08:54:44;;;;;;;4.93;3.57;;;;;;;;;;5004732;28;20213;-84
2022/04/26 08:57:48;;;;;;;4.10;3.70;;;;;;;;;;5005280;28;20568;-87
2022/04/26 09:01:08;;;;;;;4.77;4.37;;;;;;;;;;5014213;28;20217;-85
2022/04/26 09:04:15;;;;;;;5.17;4.40;;;;;;;;;;5016566;28;20190;-85
2022/04/26 09:07:31;;;;;;;4.57;4.17;;;;;;;;;;5003747;28;20190;-84
2022/04/26 09:10:35;;;;;;;4.47;4.03;;;;;;;;;;5004037;28;20213;-84
2022/04/26 09:13:40;;;;;;;4.07;3.67;;;;;;;;;;5003263;28;20213;-84
2022/04/26 09:16:44;;;;;;;4.17;3.77;;;;;;;;;;5003526;28;20193;-86
2022/04/26 09:19:48;;;;;;;6.37;3.30;;;;;;;;;;5003285;28;20213;-87
2022/04/26 09:22:59;;;;;;;4.17;3.77;;;;;;;;;;4992267;28;20181;-85
2022/04/26 09:26:09;;;;;;;5.97;4.47;;;;;;;;;;5003016;28;20235;-85
2022/04/26 09:29:18;;;;;;;3.63;3.30;;;;;;;;;;5007626;28;20193;-85
2022/04/26 09:32:26;;;;;;;3.90;3.50;;;;;;;;;;4993185;28;20198;-85
2022/04/26 09:35:32;;;;;;;4.30;3.60;;;;;;;;;;5002789;28;20201;-86
2022/04/26 09:38:38;;;;;;;4.00;3.60;;;;;;;;;;4994644;28;20194;-86
2022/04/26 09:41:48;;;;;;;3.80;3.50;;;;;;;;;;5002297;28;20225;-85
2022/04/26 09:45:03;;;;;;;6.83;4.20;;;;;;;;;;5003578;28;20178;-86
2022/04/26 09:48:07;;;;;;;4.40;4.00;;;;;;;;;;5003006;28;20190;-84
2022/04/26 09:51:11;;;;;;;4.13;3.73;;;;;;;;;;5001830;28;20221;-85
2022/04/26 09:54:15;;;;;;;4.20;3.80;;;;;;;;;;4992351;28;20660;-84
2022/04/26 09:57:20;;;;;;;4.03;3.43;;;;;;;;;;5013594;28;20202;-85
2022/04/26 10:00:25;;;;;;;3.20;2.90;;;;;;;;;;4995022;28;20222;-85
2022/04/26 10:03:39;;;;;;;3.20;2.90;;;;;;;;;;4986222;28;20210;-84
2022/04/26 10:06:46;;;;;;;3.60;3.30;;;;;;;;;;4994982;28;20178;-85
2022/04/26 10:09:51;;;;;;;3.30;3.00;;;;;;;;;;4995141;28;20186;-85
2022/04/26 10:16:21;;;;;;;3.57;3.27;;;;;;;;;;4995776;28;20186;-84
2022/04/26 10:19:43;;;;;;;3.70;3.40;;;;;;;;;;5013758;28;20659;-86
2022/04/26 10:22:56;;;;;;;4.10;3.53;;;;;;;;;;5002386;28;20194;-85
2022/04/26 10:26:27;;;;;;;3.90;3.50;;;;;;;;;;5015328;28;20186;-84
2022/04/26 10:29:43;;;;;;;3.43;3.13;;;;;;;;;;5003341;28;20198;-84
2022/04/26 10:32:47;;;;;;;3.53;3.00;;;;;;;;;;4999837;28;20559;-87
2022/04/26 10:35:51;;;;;;;3.83;3.50;;;;;;;;;;5002757;28;20174;-84
2022/04/26 10:39:20;;;;;;;4.47;3.43;;;;;;;;;;4990616;28;20192;-85
2022/04/26 10:42:31;;;;;;;3.33;3.03;;;;;;;;;;5015498;28;20193;-84
2022/04/26 10:46:07;;;;;;;3.00;2.80;;;;;;;;;;4991413;28;20190;-86
2022/04/26 10:49:22;;;;;;;2.60;2.37;;;;;;;;;;5004615;28;20186;-84
2022/04/26 10:52:25;;;;;;;2.40;2.20;;;;;;;;;;5000499;28;20186;-84
2022/04/26 10:55:30;;;;;;;2.50;2.30;;;;;;;;;;5002139;28;20209;-83
2022/04/26 10:58:34;;;;;;;2.80;2.50;;;;;;;;;;5014643;28;20194;-84
2022/04/26 11:01:39;;;;;;;4.40;2.87;;;;;;;;;;5013535;28;20213;-83
2022/04/26 11:04:44;;;;;;;6.43;3.30;;;;;;;;;;4994037;28;20178;-84
2022/04/26 11:07:49;;;;;;;4.13;3.47;;;;;;;;;;4989527;28;20640;-86
2022/04/26 11:11:10;;;;;;;4.90;4.23;;;;;;;;;;4991734;28;20225;-86
2022/04/26 11:14:19;;;;;;;4.33;3.70;;;;;;;;;;5001678;28;20213;-85
2022/04/26 11:17:25;;;;;;;3.97;3.10;;;;;;;;;;5013143;28;20193;-84
2022/04/26 11:20:35;;;;;;;2.53;2.33;;;;;;;;;;5003537;28;20224;-83
2022/04/26 11:30:44;;;;;;;5.40;4.90;;;;;;;;;;5013059;28;20233;-86
2022/04/26 11:33:52;;;;;;;4.00;3.30;;;;;;;;;;5003617;28;20194;-83
2022/04/26 11:36:56;;;;;;;3.10;2.80;;;;;;;;;;5006445;28;20182;-85
2022/04/26 11:40:03;;;;;;;3.20;2.73;;;;;;;;;;4987743;28;20230;-85
2022/04/26 11:43:15;;;;;;;3.40;2.90;;;;;;;;;;5016910;28;20185;-85
2022/04/26 11:46:19;;;;;;;3.13;2.83;;;;;;;;;;5016624;28;20181;-83
2022/04/26 11:49:40;;;;;;;3.50;2.83;;;;;;;;;;5004273;28;20205;-83
2022/04/26 11:52:45;;;;;;;3.37;3.00;;;;;;;;;;5001820;28;20190;-85
2022/04/26 11:55:54;;;;;;;3.20;2.80;;;;;;;;;;5001869;28;20209;-86
2022/04/26 11:58:58;;;;;;;3.10;2.80;;;;;;;;;;4994182;28;20187;-84
2022/04/26 12:02:04;;;;;;;4.00;3.60;;;;;;;;;;5012782;28;20185;-87
2022/04/26 12:05:09;;;;;;;3.30;3.00;;;;;;;;;;4985068;28;20175;-86
2022/04/26 12:08:13;;;;;;;3.67;3.20;;;;;;;;;;4985821;28;20182;-86
2022/04/26 12:11:24;;;;;;;3.93;3.20;;;;;;;;;;4985322;28;20226;-86
2022/04/26 12:14:28;;;;;;;4.77;2.80;;;;;;;;;;5002599;28;20553;-85
2022/04/26 12:17:32;;;;;;;3.33;2.90;;;;;;;;;;5005398;28;20667;-84
2022/04/26 12:20:54;;;;;;;3.37;3.07;;;;;;;;;;5003650;28;20220;-84
2022/04/26 12:24:10;;;;;;;5.03;3.10;;;;;;;;;;5006023;28;20197;-86
2022/04/26 12:27:16;;;;;;;3.23;2.93;;;;;;;;;;5006948;28;20198;-86
2022/04/26 12:30:20;;;;;;;3.23;2.93;;;;;;;;;;5006973;28;20228;-83
2022/04/26 12:33:25;;;;;;;6.07;3.00;;;;;;;;;;4997171;28;20189;-82
2022/04/26 12:36:54;;;;;;;5.13;3.17;;;;;;;;;;5007177;28;20185;-86
2022/04/26 12:40:07;;;;;;;5.57;3.60;;;;;;;;;;5008342;28;20213;-83
2022/04/26 12:43:28;;;;;;;3.80;3.50;;;;;;;;;;5015774;28;20193;-82
2022/04/26 12:46:47;;;;;;;3.93;3.47;;;;;;;;;;5007890;28;20612;-82
2022/04/26 12:50:29;;;;;;;4.30;3.57;;;;;;;;;;4998721;28;20189;-82
2022/04/26 12:53:34;;;;;;;4.33;3.20;;;;;;;;;;5007952;28;20186;-82
2022/04/26 12:56:40;;;;;;;4.13;3.73;;;;;;;;;;5007511;28;20189;-84
2022/04/26 12:59:43;;;;;;;4.47;3.20;;;;;;;;;;4996384;28;20177;-82
2022/04/26 13:02:53;;;;;;;4.27;3.20;;;;;;;;;;5019480;28;20201;-82
2022/04/26 13:06:11;;;;;;;3.83;3.50;;;;;;;;;;5017272;28;20189;-86
2022/04/26 13:09:15;;;;;;;5.27;3.63;;;;;;;;;;5007285;28;20201;-83
2022/04/26 13:12:19;;;;;;;5.20;3.57;;;;;;;;;;5019003;28;20185;-83
2022/04/26 13:15:24;;;;;;;3.83;3.43;;;;;;;;;;5017166;28;20209;-83
2022/04/26 13:18:28;;;;;;;4.10;3.63;;;;;;;;;;5006266;28;20193;-85
2022/04/26 13:21:34;;;;;;;4.10;3.70;;;;;;;;;;5006118;28;20213;-86
2022/04/26 13:24:38;;;;;;;6.27;4.23;;;;;;;;;;5017531;28;20518;-83
2022/04/26 13:27:42;;;;;;;4.80;3.87;;;;;;;;;;5005409;28;20185;-86
2022/04/26 13:30:46;;;;;;;4.23;3.80;;;;;;;;;;5017830;28;20696;-84
2022/04/26 13:33:50;;;;;;;4.83;3.27;;;;;;;;;;4975481;28;20630;-83
2022/04/26 13:36:54;;;;;;;3.30;3.00;;;;;;;;;;5010487;28;20193;-85
2022/04/26 13:40:00;;;;;;;3.20;2.83;;;;;;;;;;4993789;28;20221;-86
2022/04/26 13:43:06;;;;;;;3.10;2.80;;;;;;;;;;5016430;28;20193;-83
2022/04/26 13:46:11;;;;;;;3.40;2.97;;;;;;;;;;5006821;28;20193;-85
2022/04/26 13:49:16;;;;;;;3.83;3.20;;;;;;;;;;5008213;28;20202;-86
2022/04/26 13:52:21;;;;;;;3.80;3.00;;;;;;;;;;4999972;28;20533;-85
2022/04/26 13:55:26;;;;;;;5.10;3.20;;;;;;;;;;5017735;28;20560;-83
2022/04/26 13:58:30;;;;;;;3.63;3.27;;;;;;;;;;5005226;28;20201;-85
2022/04/26 14:01:35;;;;;;;4.20;3.77;;;;;;;;;;4994423;28;20217;-84
2022/04/26 14:04:39;;;;;;;4.40;3.40;;;;;;;;;;5005112;28;20173;-84
2022/04/26 14:07:46;;;;;;;4.90;3.03;;;;;;;;;;5026347;28;20625;-83
2022/04/26 14:10:50;;;;;;;3.30;2.80;;;;;;;;;;4984177;28;20566;-86
2022/04/26 14:24:07;;;;;;;5.60;3.43;;;;;;;;;;4994687;28;20598;-83
2022/04/26 14:27:11;;;;;;;5.10;3.80;;;;;;;;;;4998680;28;20181;-84
2022/04/26 14:30:16;;;;;;;6.17;4.17;;;;;;;;;;5015204;28;20225;-86
2022/04/26 14:33:20;;;;;;;5.10;3.93;;;;;;;;;;5002368;28;20194;-83
2022/04/26 14:36:25;;;;;;;5.03;3.80;;;;;;;;;;5002455;28;20209;-86
2022/04/26 14:39:29;;;;;;;5.93;3.73;;;;;;;;;;5013551;28;20173;-84
2022/04/26 14:42:33;;;;;;;5.00;3.80;;;;;;;;;;5004488;28;20185;-84
2022/04/26 14:45:44;;;;;;;5.17;3.70;;;;;;;;;;5014747;28;20177;-86
2022/04/26 14:48:49;;;;;;;5.47;3.37;;;;;;;;;;5013811;28;20211;-84
2022/04/26 14:51:53;;;;;;;5.63;3.90;;;;;;;;;;4991969;28;20213;-84
2022/04/26 14:54:57;;;;;;;5.40;4.13;;;;;;;;;;5001474;28;20210;-86
2022/04/26 14:58:01;;;;;;;4.50;3.30;;;;;;;;;;5014350;28;20189;-86
2022/04/26 15:01:05;;;;;;;4.57;3.43;;;;;;;;;;5001986;28;20225;-83
2022/04/26 15:04:09;;;;;;;3.73;3.37;;;;;;;;;;5015895;28;20201;-84
2022/04/26 15:07:14;;;;;;;4.23;3.40;;;;;;;;;;4994162;28;20193;-84
2022/04/26 15:10:19;;;;;;;4.63;3.93;;;;;;;;;;5005412;28;20213;-83
2022/04/26 15:16:49;;;;;;;5.17;3.97;;;;;;;;;;5008958;28;20672;-86
2022/04/26 15:19:53;;;;;;;5.60;4.07;;;;;;;;;;5014518;28;20221;-84
2022/04/26 15:22:59;;;;;;;5.47;3.90;;;;;;;;;;5004135;28;20185;-86
2022/04/26 15:26:06;;;;;;;4.83;4.33;;;;;;;;;;5014456;28;20197;-84
2022/04/26 15:29:11;;;;;;;5.77;4.53;;;;;;;;;;4990553;28;20533;-83
2022/04/26 15:32:15;;;;;;;6.27;4.33;;;;;;;;;;5013381;28;20194;-86
2022/04/26 15:35:20;;;;;;;5.53;4.47;;;;;;;;;;5013367;28;20221;-82
2022/04/26 15:38:27;;;;;;;6.60;4.30;;;;;;;;;;5014172;28;20185;-85
2022/04/26 15:41:32;;;;;;;5.50;4.77;;;;;;;;;;5006291;28;20573;-84
2022/04/26 15:44:36;;;;;;;7.70;4.47;;;;;;;;;;5007223;28;20177;-85
2022/04/26 15:47:40;;;;;;;6.70;4.70;;;;;;;;;;5005560;28;20178;-86
2022/04/26 15:50:44;;;;;;;5.33;4.30;;;;;;;;;;5006944;28;20548;-86
2022/04/26 15:53:49;;;;;;;6.20;4.60;;;;;;;;;;5008053;28;20181;-86
2022/04/26 15:56:53;;;;;;;5.87;4.70;;;;;;;;;;5009223;28;20202;-83
2022/04/26 15:59:58;;;;;;;5.47;4.23;;;;;;;;;;5012263;28;20216;-86
2022/04/26 16:03:01;;;;;;;7.23;4.53;;;;;;;;;;5018581;28;20626;-84
2022/04/26 16:06:06;;;;;;;5.00;4.37;;;;;;;;;;5018749;28;20245;-84
2022/04/26 16:22:41;;;;;;;6.13;4.57;;;;;;;;;;5014610;28;20197;-84
2022/04/26 16:25:45;;;;;;;3.93;3.27;;;;;;;;;;5002553;28;20190;-83
2022/04/26 16:28:53;;;;;;;5.30;3.67;;;;;;;;;;5005117;28;20205;-83
2022/04/26 16:31:57;;;;;;;6.67;3.10;;;;;;;;;;5000023;28;20229;-84
2022/04/26 16:35:02;;;;;;;5.93;3.23;;;;;;;;;;5006920;28;20193;-84
2022/04/26 16:38:06;;;;;;;3.83;2.90;;;;;;;;;;5017928;28;20182;-84
2022/04/26 16:41:10;;;;;;;5.57;3.40;;;;;;;;;;5004307;28;20209;-87
2022/04/26 16:44:15;;;;;;;4.30;2.97;;;;;;;;;;5004550;28;20185;-87
2022/04/26 16:47:20;;;;;;;3.23;2.27;;;;;;;;;;5011046;28;20174;-84
2022/04/26 16:50:24;;;;;;;4.87;3.17;;;;;;;;;;5010242;28;20225;-84
2022/04/26 16:53:29;;;;;;;3.10;2.70;;;;;;;;;;5024076;28;20647;-87
2022/04/26 16:56:35;;;;;;;5.50;2.90;;;;;;;;;;5015771;28;20209;-84
2022/04/26 16:59:40;;;;;;;3.70;3.13;;;;;;;;;;5013347;28;20173;-84
2022/04/26 17:02:44;;;;;;;3.17;2.83;;;;;;;;;;4994652;28;20193;-87
2022/04/26 17:05:48;;;;;;;3.30;3.00;;;;;;;;;;5026666;28;20644;-88
2022/04/26 17:08:53;;;;;;;4.20;3.20;;;;;;;;;;5006101;28;20229;-87
2022/04/26 17:11:57;;;;;;;3.60;3.27;;;;;;;;;;4993868;28;20529;-83
2022/04/26 17:15:03;;;;;;;4.93;3.67;;;;;;;;;;4994263;28;20181;-84
2022/04/26 17:18:08;;;;;;;6.53;4.50;;;;;;;;;;5016292;28;20174;-84
2022/04/26 17:21:12;;;;;;;12.23;7.33;;;;;;;;;;5003102;28;20221;-84
2022/04/26 17:27:40;;;;;;;5.00;4.13;;;;;;;;;;5004698;28;20189;-85
2022/04/26 17:30:44;;;;;;;6.57;4.30;;;;;;;;;;5005415;28;20240;-85
2022/04/26 17:33:52;;;;;;;4.57;3.93;;;;;;;;;;5016883;28;20181;-85
2022/04/26 17:36:56;;;;;;;12.77;5.87;;;;;;;;;;5002829;28;20684;-85
2022/04/26 17:40:01;;;;;;;12.20;5.90;;;;;;;;;;5014961;28;20213;-85
2022/04/26 17:43:05;;;;;;;9.67;4.27;;;;;;;;;;5016419;28;20174;-85
2022/04/26 17:46:11;;;;;;;8.93;4.30;;;;;;;;;;5015758;28;20189;-88
2022/04/26 17:49:15;;;;;;;5.13;4.30;;;;;;;;;;5004092;28;20181;-87
2022/04/26 17:52:20;;;;;;;5.57;4.47;;;;;;;;;;5005770;28;20189;-86
2022/04/26 17:58:47;;;;;;;8.33;4.23;;;;;;;;;;4987919;28;20187;-85
2022/04/26 18:01:51;;;;;;;7.30;4.80;;;;;;;;;;5016267;28;20225;-84
2022/04/26 18:04:55;;;;;;;5.03;3.97;;;;;;;;;;5004303;28;20177;-86
2022/04/26 18:07:59;;;;;;;4.17;3.77;;;;;;;;;;4994990;28;20174;-85
2022/04/26 18:11:04;;;;;;;4.37;3.63;;;;;;;;;;5006085;28;20225;-86
2022/04/26 18:14:09;;;;;;;5.77;4.30;;;;;;;;;;5016194;28;20197;-84
2022/04/26 18:17:14;;;;;;;5.37;4.27;;;;;;;;;;5016097;28;20668;-84
2022/04/26 18:20:20;;;;;;;4.43;3.50;;;;;;;;;;4994509;28;20225;-84
2022/04/26 18:23:25;;;;;;;4.27;3.87;;;;;;;;;;5006446;28;20660;-84
2022/04/26 18:26:29;;;;;;;4.77;4.27;;;;;;;;;;5014549;28;20193;-85
2022/04/26 18:29:35;;;;;;;4.77;3.87;;;;;;;;;;4992580;28;20205;-86
2022/04/26 18:32:39;;;;;;;4.97;3.90;;;;;;;;;;4995014;28;20197;-84
2022/04/26 18:35:43;;;;;;;5.37;4.43;;;;;;;;;;5004869;28;20201;-86
2022/04/26 18:38:53;;;;;;;6.17;4.20;;;;;;;;;;4997512;28;20197;-85
2022/04/26 18:41:59;;;;;;;4.90;4.37;;;;;;;;;;5006464;28;20213;-84
2022/04/26 18:45:03;;;;;;;6.50;4.47;;;;;;;;;;5006911;28;20193;-85
2022/04/26 18:48:08;;;;;;;4.43;4.03;;;;;;;;;;5004250;28;20640;-88
2022/04/26 18:51:12;;;;;;;4.40;4.00;;;;;;;;;;4993178;28;20221;-86
2022/04/26 18:54:16;;;;;;;6.00;4.43;;;;;;;;;;5004981;28;20202;-86
2022/04/26 18:57:21;;;;;;;6.97;5.73;;;;;;;;;;5004774;28;20688;-88
2022/04/26 19:00:24;;;;;;;6.93;5.73;;;;;;;;;;5016012;28;20244;-85
2022/04/26 19:03:29;;;;;;;5.80;5.13;;;;;;;;;;5013945;28;20181;-87
2022/04/26 19:06:33;;;;;;;4.63;4.13;;;;;;;;;;4997367;28;20186;-85
2022/04/26 19:12:15;;;;;;;6.43;4.33;;;;;;;;;;4987725;28;20205;-84
2022/04/26 19:13:02;;;;;;;5.47;4.67;;;;;;;;;;5005275;28;20206;-88
2022/04/26 19:16:08;;;;;;;6.47;4.40;;;;;;;;;;5007389;28;20185;-88
2022/04/26 19:19:15;;;;;;;4.77;3.90;;;;;;;;;;5020337;28;20205;-85
2022/04/26 19:22:19;;;;;;;5.73;4.43;;;;;;;;;;4996208;28;20182;-88
2022/04/26 19:25:24;;;;;;;6.07;4.40;;;;;;;;;;4999502;28;20185;-86
2022/04/26 19:28:29;;;;;;;5.27;4.07;;;;;;;;;;5019175;28;20189;-85
2022/04/26 19:31:33;;;;;;;5.10;4.10;;;;;;;;;;4998538;28;20228;-86
2022/04/26 19:34:37;;;;;;;5.20;3.80;;;;;;;;;;5006916;28;20201;-88
2022/04/26 19:37:43;;;;;;;5.03;4.30;;;;;;;;;;4996715;28;20221;-86
2022/04/26 19:40:47;;;;;;;6.03;4.17;;;;;;;;;;5007890;28;20217;-86
2022/04/26 19:43:52;;;;;;;7.23;4.07;;;;;;;;;;5007994;28;20178;-88
2022/04/26 19:46:58;;;;;;;5.10;4.27;;;;;;;;;;4997866;28;20174;-84
2022/04/26 19:53:26;;;;;;;5.33;3.70;;;;;;;;;;4989168;28;20183;-84
2022/04/26 19:56:31;;;;;;;5.37;3.73;;;;;;;;;;4991714;28;20209;-84
2022/04/26 19:59:35;;;;;;;4.20;3.77;;;;;;;;;;5016844;28;20201;-85
2022/04/26 20:02:39;;;;;;;4.60;3.87;;;;;;;;;;5029919;28;20201;-84
2022/04/26 20:05:44;;;;;;;3.90;3.50;;;;;;;;;;5006033;28;20185;-88
2022/04/26 20:08:48;;;;;;;5.70;3.73;;;;;;;;;;5018724;28;20556;-84
2022/04/26 20:11:52;;;;;;;4.27;3.53;;;;;;;;;;5007468;28;20684;-86
2022/04/26 20:14:57;;;;;;;3.90;3.50;;;;;;;;;;5016759;28;20201;-85
2022/04/26 20:18:01;;;;;;;4.07;3.43;;;;;;;;;;5017507;28;20225;-84
2022/04/26 20:21:07;;;;;;;3.80;3.40;;;;;;;;;;4993502;28;20217;-88
2022/04/26 20:24:10;;;;;;;4.13;3.53;;;;;;;;;;5005016;28;20181;-88
2022/04/26 20:30:38;;;;;;;3.97;3.27;;;;;;;;;;5007931;28;20233;-83
2022/04/26 20:33:42;;;;;;;3.27;2.97;;;;;;;;;;5006349;28;20181;-87
2022/04/26 20:36:46;;;;;;;4.53;3.50;;;;;;;;;;5006078;28;20201;-84
2022/04/26 20:39:51;;;;;;;5.60;3.17;;;;;;;;;;4994205;28;20541;-83
2022/04/26 20:42:57;;;;;;;3.67;3.03;;;;;;;;;;5004990;28;20185;-83
2022/04/26 20:46:01;;;;;;;3.80;3.30;;;;;;;;;;5005563;28;20536;-84
2022/04/26 20:49:06;;;;;;;3.63;3.33;;;;;;;;;;5005223;28;20526;-86
2022/04/26 20:52:10;;;;;;;4.00;3.13;;;;;;;;;;5005854;28;20633;-88
2022/04/26 20:55:14;;;;;;;3.47;3.07;;;;;;;;;;5004544;28;20177;-84
2022/04/26 20:58:18;;;;;;;3.93;2.93;;;;;;;;;;5016215;28;20661;-83
2022/04/26 21:01:22;;;;;;;3.30;2.93;;;;;;;;;;5004503;28;20213;-86
2022/04/26 21:04:26;;;;;;;3.27;2.50;;;;;;;;;;4994411;28;20628;-84
2022/04/26 21:07:30;;;;;;;3.80;3.00;;;;;;;;;;5016285;28;20178;-86
2022/04/26 21:10:34;;;;;;;3.73;2.47;;;;;;;;;;5004855;28;20221;-84
2022/04/26 21:13:38;;;;;;;3.77;3.00;;;;;;;;;;5016359;28;20182;-87
2022/04/26 21:16:43;;;;;;;3.57;2.97;;;;;;;;;;5004634;28;20177;-84
2022/04/26 21:19:47;;;;;;;3.00;2.67;;;;;;;;;;5005523;28;20625;-83
2022/04/26 21:22:51;;;;;;;3.47;2.63;;;;;;;;;;5005646;28;20186;-84
2022/04/26 21:25:56;;;;;;;3.23;2.80;;;;;;;;;;5017423;28;20197;-87
2022/04/26 21:29:01;;;;;;;4.83;2.30;;;;;;;;;;5004601;28;20174;-85
2022/04/26 21:32:05;;;;;;;2.87;2.30;;;;;;;;;;4993225;28;20205;-85
2022/04/26 21:35:10;;;;;;;2.73;2.37;;;;;;;;;;5007492;28;20177;-85
2022/04/26 21:38:14;;;;;;;4.43;3.27;;;;;;;;;;5015461;28;20209;-83
2022/04/26 21:41:18;;;;;;;7.47;4.97;;;;;;;;;;5015468;28;20211;-84
2022/04/26 21:44:23;;;;;;;8.27;5.50;;;;;;;;;;5004795;28;20545;-86
2022/04/26 21:47:27;;;;;;;6.83;5.23;;;;;;;;;;5016300;28;20173;-88
2022/04/26 21:53:54;;;;;;;5.47;4.27;;;;;;;;;;5003793;28;20185;-84
2022/04/26 21:56:59;;;;;;;6.57;4.33;;;;;;;;;;5014736;28;20177;-88
2022/04/26 22:00:28;;;;;;;7.33;4.07;;;;;;;;;;5004338;28;20214;-84
2022/04/26 22:03:33;;;;;;;5.60;3.93;;;;;;;;;;5017243;28;20522;-84
2022/04/26 22:06:37;;;;;;;3.57;3.17;;;;;;;;;;5003496;28;20181;-87
2022/04/26 22:09:41;;;;;;;4.13;3.23;;;;;;;;;;5006933;28;20178;-84
2022/04/26 22:12:45;;;;;;;3.57;3.17;;;;;;;;;;5003652;28;20189;-84
2022/04/26 22:15:52;;;;;;;3.27;2.77;;;;;;;;;;5014853;28;20197;-83
2022/04/26 22:18:56;;;;;;;3.60;2.83;;;;;;;;;;5003529;28;20229;-83
2022/04/26 22:22:00;;;;;;;3.47;3.13;;;;;;;;;;5004011;28;20185;-85
2022/04/26 22:25:04;;;;;;;3.23;2.80;;;;;;;;;;5017045;28;20515;-84
2022/04/26 22:28:08;;;;;;;4.07;3.23;;;;;;;;;;4994461;28;20528;-88
2022/04/26 22:31:12;;;;;;;3.47;3.00;;;;;;;;;;5005675;28;20224;-86
2022/04/26 22:34:17;;;;;;;3.50;2.90;;;;;;;;;;5003430;28;20522;-84
2022/04/26 22:37:21;;;;;;;3.20;2.80;;;;;;;;;;5006367;28;20216;-84
2022/04/26 22:40:25;;;;;;;3.30;2.80;;;;;;;;;;5014421;28;20580;-86
2022/04/26 22:43:30;;;;;;;3.73;2.80;;;;;;;;;;5013629;28;20541;-88
2022/04/26 22:46:34;;;;;;;4.33;3.13;;;;;;;;;;5002719;28;20173;-86
2022/04/26 22:49:38;;;;;;;3.10;2.80;;;;;;;;;;5001952;28;20170;-84
2022/04/26 22:52:42;;;;;;;3.97;2.83;;;;;;;;;;5017209;28;20527;-84
2022/04/26 22:55:47;;;;;;;4.53;3.23;;;;;;;;;;5015842;28;20186;-84
2022/04/26 22:58:51;;;;;;;4.73;3.07;;;;;;;;;;5006040;28;20213;-84
2022/04/26 23:01:55;;;;;;;6.30;3.10;;;;;;;;;;5002873;28;20229;-83
2022/04/26 23:05:00;;;;;;;3.33;3.00;;;;;;;;;;5003454;28;20181;-83
2022/04/26 23:08:04;;;;;;;4.20;3.00;;;;;;;;;;5013836;28;20181;-83
2022/04/26 23:11:08;;;;;;;3.27;2.93;;;;;;;;;;5027475;28;20220;-84